sensor_id;sensor_type;location;lat;lon;timestamp;pressure;altitude;pressure_sealevel;temperature;humidity
37860;BME280;23698;52.014;5.190;2023-04-30T05:02:35;102214.75;;;7.90;100.00
37860;BME280;23698;52.014;5.190;2023-04-30T05:05:21;102212.75;;;7.92;100.00
37860;BME280;23698;52.014;5.190;2023-04-30T05:08:08;102211.94;;;8.11;100.00
37860;BME280;23698;52.014;5.190;2023-04-30T05:10:54;102212.78;;;8.22;100.00
37860;BME280;23698;52.014;5.190;2023-04-30T05:13:40;102211.78;;;8.03;100.00
37860;BME280;23698;52.014;5.190;2023-04-30T07:55:35;102341.03;;;13.67;100.00
37860;BME280;23698;52.014;5.190;2023-04-30T07:58:22;102349.09;;;14.00;100.00
37860;BME280;23698;52.014;5.190;2023-04-30T08:05:08;102354.53;;;14.63;100.00
37860;BME280;23698;52.014;5.190;2023-04-30T08:07:54;102354.34;;;15.70;100.00
37860;BME280;23698;52.014;5.190;2023-04-30T08:10:42;102356.06;;;14.34;100.00
37860;BME280;23698;52.014;5.190;2023-04-30T08:13:28;102359.63;;;14.66;100.00
37860;BME280;23698;52.014;5.190;2023-04-30T08:16:15;102363.66;;;15.46;100.00
37860;BME280;23698;52.014;5.190;2023-04-30T08:19:27;102357.13;;;14.79;100.00
37860;BME280;23698;52.014;5.190;2023-04-30T08:22:14;102355.50;;;14.70;100.00
37860;BME280;23698;52.014;5.190;2023-04-30T08:25:00;102363.22;;;15.04;100.00
37860;BME280;23698;52.014;5.190;2023-04-30T08:27:48;102358.31;;;15.53;100.00
37860;BME280;23698;52.014;5.190;2023-04-30T08:30:34;102363.97;;;15.66;100.00
37860;BME280;23698;52.014;5.190;2023-04-30T08:33:21;102367.72;;;15.35;100.00
37860;BME280;23698;52.014;5.190;2023-04-30T08:36:08;102370.28;;;14.99;100.00
37860;BME280;23698;52.014;5.190;2023-04-30T08:38:54;102361.53;;;15.41;100.00
37860;BME280;23698;52.014;5.190;2023-04-30T08:41:44;102364.72;;;15.60;100.00
37860;BME280;23698;52.014;5.190;2023-04-30T08:44:33;102361.59;;;15.48;100.00
37860;BME280;23698;52.014;5.190;2023-04-30T08:47:21;102366.81;;;16.02;100.00
37860;BME280;23698;52.014;5.190;2023-04-30T08:50:08;102369.09;;;15.84;100.00
37860;BME280;23698;52.014;5.190;2023-04-30T08:52:55;102358.88;;;14.95;100.00
37860;BME280;23698;52.014;5.190;2023-04-30T08:55:42;102367.91;;;15.63;100.00
37860;BME280;23698;52.014;5.190;2023-04-30T08:58:28;102361.69;;;15.40;100.00
37860;BME280;23698;52.014;5.190;2023-04-30T09:01:16;102359.28;;;15.75;100.00
37860;BME280;23698;52.014;5.190;2023-04-30T09:04:03;102346.75;;;15.80;100.00
37860;BME280;23698;52.014;5.190;2023-04-30T09:06:51;102350.88;;;15.91;100.00
37860;BME280;23698;52.014;5.190;2023-04-30T09:09:38;102355.13;;;15.79;100.00
37860;BME280;23698;52.014;5.190;2023-04-30T09:12:25;102349.25;;;15.22;100.00
37860;BME280;23698;52.014;5.190;2023-04-30T09:15:11;102342.66;;;16.06;100.00
37860;BME280;23698;52.014;5.190;2023-04-30T09:18:10;102350.13;;;15.82;100.00
37860;BME280;23698;52.014;5.190;2023-04-30T09:20:58;102348.25;;;16.77;100.00
37860;BME280;23698;52.014;5.190;2023-04-30T09:23:55;102349.78;;;16.22;100.00
37860;BME280;23698;52.014;5.190;2023-04-30T09:26:42;102347.56;;;16.69;100.00
37860;BME280;23698;52.014;5.190;2023-04-30T09:29:35;102352.19;;;16.32;100.00
37860;BME280;23698;52.014;5.190;2023-04-30T09:32:21;102342.69;;;17.14;100.00
37860;BME280;23698;52.014;5.190;2023-04-30T09:35:27;102340.88;;;17.28;100.00
37860;BME280;23698;52.014;5.190;2023-04-30T09:38:25;102341.06;;;17.54;100.00
37860;BME280;23698;52.014;5.190;2023-04-30T09:41:23;102341.38;;;17.73;100.00
37860;BME280;23698;52.014;5.190;2023-04-30T09:44:25;102343.94;;;16.68;100.00
37860;BME280;23698;52.014;5.190;2023-04-30T09:47:14;102341.47;;;17.51;100.00
37860;BME280;23698;52.014;5.190;2023-04-30T09:50:00;102333.47;;;17.91;100.00
37860;BME280;23698;52.014;5.190;2023-04-30T09:52:51;102333.06;;;17.95;100.00
37860;BME280;23698;52.014;5.190;2023-04-30T09:55:41;102328.50;;;17.73;100.00
37860;BME280;23698;52.014;5.190;2023-04-30T09:58:28;102327.56;;;17.53;100.00
37860;BME280;23698;52.014;5.190;2023-04-30T10:01:16;102328.72;;;17.37;100.00
37860;BME280;23698;52.014;5.190;2023-04-30T10:04:04;102326.59;;;18.09;100.00
37860;BME280;23698;52.014;5.190;2023-04-30T10:06:51;102314.56;;;17.75;100.00
37860;BME280;23698;52.014;5.190;2023-04-30T10:09:50;102313.81;;;17.46;100.00
37860;BME280;23698;52.014;5.190;2023-04-30T10:12:39;102309.16;;;17.47;100.00
37860;BME280;23698;52.014;5.190;2023-04-30T10:24:52;102303.66;;;18.37;100.00
37860;BME280;23698;52.014;5.190;2023-04-30T10:27:39;102300.25;;;18.41;100.00
37860;BME280;23698;52.014;5.190;2023-04-30T10:30:26;102292.75;;;17.53;100.00
37860;BME280;23698;52.014;5.190;2023-04-30T10:33:22;102297.75;;;17.85;100.00
37860;BME280;23698;52.014;5.190;2023-04-30T10:36:13;102294.00;;;17.86;100.00
37860;BME280;23698;52.014;5.190;2023-04-30T10:39:04;102291.81;;;18.29;100.00
37860;BME280;23698;52.014;5.190;2023-04-30T10:42:01;102292.88;;;18.35;100.00
37860;BME280;23698;52.014;5.190;2023-04-30T10:44:47;102289.72;;;18.38;100.00
37860;BME280;23698;52.014;5.190;2023-04-30T10:47:33;102287.41;;;18.62;100.00
37860;BME280;23698;52.014;5.190;2023-04-30T10:50:24;102284.03;;;19.07;100.00
37860;BME280;23698;52.014;5.190;2023-04-30T10:53:16;102285.50;;;19.16;100.00
37860;BME280;23698;52.014;5.190;2023-04-30T10:56:05;102282.75;;;18.62;100.00
37860;BME280;23698;52.014;5.190;2023-04-30T10:58:58;102283.16;;;19.13;100.00
37860;BME280;23698;52.014;5.190;2023-04-30T11:01:55;102274.63;;;19.48;100.00
37860;BME280;23698;52.014;5.190;2023-04-30T11:05:07;102266.47;;;19.01;100.00
37860;BME280;23698;52.014;5.190;2023-04-30T11:07:56;102266.78;;;19.44;100.00
37860;BME280;23698;52.014;5.190;2023-04-30T11:10:56;102259.72;;;19.69;100.00
37860;BME280;23698;52.014;5.190;2023-04-30T11:13:47;102252.97;;;19.71;100.00
37860;BME280;23698;52.014;5.190;2023-04-30T11:16:47;102248.25;;;20.49;100.00
37860;BME280;23698;52.014;5.190;2023-04-30T11:19:34;102243.31;;;19.55;100.00
37860;BME280;23698;52.014;5.190;2023-04-30T11:22:21;102251.88;;;19.79;100.00
37860;BME280;23698;52.014;5.190;2023-04-30T11:25:09;102245.41;;;20.30;100.00
37860;BME280;23698;52.014;5.190;2023-04-30T11:27:57;102251.41;;;19.37;100.00
37860;BME280;23698;52.014;5.190;2023-04-30T11:30:50;102242.09;;;19.38;100.00
37860;BME280;23698;52.014;5.190;2023-04-30T11:33:39;102241.41;;;19.49;100.00
37860;BME280;23698;52.014;5.190;2023-04-30T11:36:29;102230.63;;;20.25;100.00
37860;BME280;23698;52.014;5.190;2023-04-30T11:39:18;102237.13;;;20.05;100.00
37860;BME280;23698;52.014;5.190;2023-04-30T11:42:05;102218.25;;;19.77;100.00
37860;BME280;23698;52.014;5.190;2023-04-30T11:44:52;102225.28;;;20.05;100.00
37860;BME280;23698;52.014;5.190;2023-04-30T11:47:43;102218.53;;;20.00;100.00
37860;BME280;23698;52.014;5.190;2023-04-30T11:50:32;102209.63;;;20.81;100.00
37860;BME280;23698;52.014;5.190;2023-04-30T11:53:25;102208.28;;;20.90;100.00
37860;BME280;23698;52.014;5.190;2023-04-30T11:56:12;102209.44;;;20.57;100.00
37860;BME280;23698;52.014;5.190;2023-04-30T11:58:58;102211.28;;;20.63;100.00
37860;BME280;23698;52.014;5.190;2023-04-30T12:01:45;102206.81;;;20.37;100.00
37860;BME280;23698;52.014;5.190;2023-04-30T12:04:31;102201.00;;;19.95;100.00
37860;BME280;23698;52.014;5.190;2023-04-30T12:07:19;102197.56;;;21.37;100.00
37860;BME280;23698;52.014;5.190;2023-04-30T12:10:09;102201.22;;;22.52;100.00
37860;BME280;23698;52.014;5.190;2023-04-30T12:12:56;102186.31;;;21.57;100.00
37860;BME280;23698;52.014;5.190;2023-04-30T12:15:56;102191.50;;;20.91;100.00
37860;BME280;23698;52.014;5.190;2023-04-30T12:18:43;102193.72;;;20.83;100.00
37860;BME280;23698;52.014;5.190;2023-04-30T12:21:29;102187.53;;;20.69;100.00
37860;BME280;23698;52.014;5.190;2023-04-30T12:24:18;102181.78;;;21.44;100.00
37860;BME280;23698;52.014;5.190;2023-04-30T12:27:05;102182.41;;;21.46;100.00
37860;BME280;23698;52.014;5.190;2023-04-30T12:29:51;102181.19;;;21.42;100.00
37860;BME280;23698;52.014;5.190;2023-04-30T12:32:41;102183.03;;;21.48;100.00
37860;BME280;23698;52.014;5.190;2023-04-30T12:35:29;102167.44;;;21.54;100.00
37860;BME280;23698;52.014;5.190;2023-04-30T12:38:16;102176.97;;;21.70;100.00
37860;BME280;23698;52.014;5.190;2023-04-30T12:41:06;102177.41;;;21.85;100.00
37860;BME280;23698;52.014;5.190;2023-04-30T12:44:17;102171.06;;;20.05;100.00
37860;BME280;23698;52.014;5.190;2023-04-30T12:47:06;102163.88;;;20.04;100.00
37860;BME280;23698;52.014;5.190;2023-04-30T12:49:54;102162.31;;;20.15;100.00
37860;BME280;23698;52.014;5.190;2023-04-30T12:52:43;102169.09;;;20.12;100.00
37860;BME280;23698;52.014;5.190;2023-04-30T12:55:30;102166.19;;;19.69;100.00
37860;BME280;23698;52.014;5.190;2023-04-30T12:58:21;102159.50;;;19.96;100.00
37860;BME280;23698;52.014;5.190;2023-04-30T13:01:09;102160.81;;;20.19;100.00
37860;BME280;23698;52.014;5.190;2023-04-30T13:03:56;102159.47;;;19.65;100.00
37860;BME280;23698;52.014;5.190;2023-04-30T13:06:43;102150.00;;;19.92;100.00
37860;BME280;23698;52.014;5.190;2023-04-30T13:09:31;102149.56;;;20.71;100.00
37860;BME280;23698;52.014;5.190;2023-04-30T13:12:17;102144.00;;;20.27;100.00
37860;BME280;23698;52.014;5.190;2023-04-30T13:15:06;102144.03;;;19.95;100.00
37860;BME280;23698;52.014;5.190;2023-04-30T13:17:53;102136.75;;;20.33;100.00
37860;BME280;23698;52.014;5.190;2023-04-30T13:20:40;102134.72;;;20.90;100.00
37860;BME280;23698;52.014;5.190;2023-04-30T13:23:30;102128.53;;;20.95;100.00
37860;BME280;23698;52.014;5.190;2023-04-30T13:26:33;102134.25;;;21.61;100.00
37860;BME280;23698;52.014;5.190;2023-04-30T13:29:19;102128.19;;;22.60;100.00
37860;BME280;23698;52.014;5.190;2023-04-30T13:32:07;102124.94;;;22.39;89.44
37860;BME280;23698;52.014;5.190;2023-04-30T13:34:54;102124.09;;;22.51;99.58
37860;BME280;23698;52.014;5.190;2023-04-30T13:37:42;102120.44;;;21.30;98.76
37860;BME280;23698;52.014;5.190;2023-04-30T13:40:28;102119.84;;;20.91;100.00
37860;BME280;23698;52.014;5.190;2023-04-30T13:43:14;102119.84;;;20.91;100.00
37860;BME280;23698;52.014;5.190;2023-04-30T13:46:01;102119.34;;;20.58;100.00
37860;BME280;23698;52.014;5.190;2023-04-30T13:48:48;102112.84;;;20.27;100.00
37860;BME280;23698;52.014;5.190;2023-04-30T13:51:37;102106.06;;;20.04;100.00
37860;BME280;23698;52.014;5.190;2023-04-30T13:54:25;102107.19;;;19.65;100.00
37860;BME280;23698;52.014;5.190;2023-04-30T13:57:12;102112.53;;;19.59;100.00
37860;BME280;23698;52.014;5.190;2023-04-30T13:59:58;102103.84;;;19.94;100.00
37860;BME280;23698;52.014;5.190;2023-04-30T14:02:45;102098.16;;;20.14;100.00
37860;BME280;23698;52.014;5.190;2023-04-30T14:05:32;102098.56;;;20.99;100.00
37860;BME280;23698;52.014;5.190;2023-04-30T14:08:19;102094.88;;;21.05;100.00
37860;BME280;23698;52.014;5.190;2023-04-30T14:11:07;102101.09;;;21.49;100.00
37860;BME280;23698;52.014;5.190;2023-04-30T14:13:54;102088.72;;;21.82;100.00
37860;BME280;23698;52.014;5.190;2023-04-30T14:16:40;102079.44;;;22.42;100.00
37860;BME280;23698;52.014;5.190;2023-04-30T14:19:28;102083.25;;;22.29;98.57
37860;BME280;23698;52.014;5.190;2023-04-30T14:22:16;102081.75;;;23.72;89.17
37860;BME280;23698;52.014;5.190;2023-04-30T14:25:03;102088.91;;;21.57;97.88
37860;BME280;23698;52.014;5.190;2023-04-30T14:27:49;102084.59;;;20.56;100.00
37860;BME280;23698;52.014;5.190;2023-04-30T14:30:35;102085.72;;;20.92;100.00
37860;BME280;23698;52.014;5.190;2023-04-30T14:33:22;102080.13;;;21.29;100.00
37860;BME280;23698;52.014;5.190;2023-04-30T14:36:08;102075.00;;;21.63;100.00
37860;BME280;23698;52.014;5.190;2023-04-30T14:38:56;102073.59;;;21.96;100.00
37860;BME280;23698;52.014;5.190;2023-04-30T14:41:42;102061.50;;;22.97;88.69
37860;BME280;23698;52.014;5.190;2023-04-30T14:44:28;102062.25;;;23.50;80.66
37860;BME280;23698;52.014;5.190;2023-04-30T14:47:16;102070.72;;;22.03;89.80
37860;BME280;23698;52.014;5.190;2023-04-30T14:50:04;102069.31;;;22.48;89.95
37860;BME280;23698;52.014;5.190;2023-04-30T14:52:51;102054.50;;;22.77;86.58
37860;BME280;23698;52.014;5.190;2023-04-30T14:55:39;102056.69;;;22.63;92.92
37860;BME280;23698;52.014;5.190;2023-04-30T14:58:25;102057.03;;;21.84;89.33
37860;BME280;23698;52.014;5.190;2023-04-30T15:04:28;102044.56;;;22.93;84.40
37860;BME280;23698;52.014;5.190;2023-04-30T15:07:15;102046.00;;;22.55;86.52
37860;BME280;23698;52.014;5.190;2023-04-30T15:10:03;102033.13;;;24.32;76.20
37860;BME280;23698;52.014;5.190;2023-04-30T15:12:51;102039.75;;;22.48;89.11
37860;BME280;23698;52.014;5.190;2023-04-30T15:15:37;102028.47;;;22.90;86.79
37860;BME280;23698;52.014;5.190;2023-04-30T15:18:24;102034.16;;;20.93;100.00
37860;BME280;23698;52.014;5.190;2023-04-30T15:21:11;102037.66;;;20.88;100.00
37860;BME280;23698;52.014;5.190;2023-04-30T15:23:58;102037.28;;;20.66;100.00
37860;BME280;23698;52.014;5.190;2023-04-30T15:26:45;102035.19;;;20.62;100.00
37860;BME280;23698;52.014;5.190;2023-04-30T15:29:34;102033.84;;;20.71;100.00
37860;BME280;23698;52.014;5.190;2023-04-30T15:32:27;102035.66;;;21.80;97.27
37860;BME280;23698;52.014;5.190;2023-04-30T15:35:16;102018.50;;;22.49;91.91
37860;BME280;23698;52.014;5.190;2023-04-30T15:38:03;102017.16;;;22.92;85.15
37860;BME280;23698;52.014;5.190;2023-04-30T15:40:49;102023.03;;;22.95;80.41
37860;BME280;23698;52.014;5.190;2023-04-30T15:43:36;102016.25;;;23.15;79.69
37860;BME280;23698;52.014;5.190;2023-04-30T15:46:24;102020.06;;;23.43;77.87
37860;BME280;23698;52.014;5.190;2023-04-30T15:49:10;102010.41;;;24.30;72.90
37860;BME280;23698;52.014;5.190;2023-04-30T15:51:57;102010.53;;;23.50;77.44
37860;BME280;23698;52.014;5.190;2023-04-30T15:54:43;102001.31;;;24.35;70.97
37860;BME280;23698;52.014;5.190;2023-04-30T15:57:30;102006.66;;;23.34;69.81
37860;BME280;23698;52.014;5.190;2023-04-30T16:00:16;102007.00;;;22.16;78.29
37860;BME280;23698;52.014;5.190;2023-04-30T16:03:04;102001.91;;;23.47;73.90
37860;BME280;23698;52.014;5.190;2023-04-30T16:05:51;101995.75;;;23.28;71.99
37860;BME280;23698;52.014;5.190;2023-04-30T16:08:37;101990.97;;;20.75;90.72
37860;BME280;23698;52.014;5.190;2023-04-30T16:11:29;101995.63;;;20.74;100.00
37860;BME280;23698;52.014;5.190;2023-04-30T16:14:17;101991.97;;;19.82;100.00
37860;BME280;23698;52.014;5.190;2023-04-30T16:21:58;101980.94;;;19.56;100.00
37860;BME280;23698;52.014;5.190;2023-04-30T16:24:45;101984.59;;;20.56;100.00
37860;BME280;23698;52.014;5.190;2023-04-30T16:27:31;101979.97;;;21.59;99.73
37860;BME280;23698;52.014;5.190;2023-04-30T16:30:21;101975.56;;;22.05;99.38
37860;BME280;23698;52.014;5.190;2023-04-30T16:33:09;101972.94;;;21.33;97.71
37860;BME280;23698;52.014;5.190;2023-04-30T16:36:12;101970.09;;;19.87;100.00
37860;BME280;23698;52.014;5.190;2023-04-30T16:39:04;101968.63;;;20.65;100.00
37860;BME280;23698;52.014;5.190;2023-04-30T16:41:50;101966.31;;;20.62;100.00
37860;BME280;23698;52.014;5.190;2023-04-30T16:44:37;101967.34;;;19.61;100.00
37860;BME280;23698;52.014;5.190;2023-04-30T16:47:24;101965.53;;;19.80;100.00
37860;BME280;23698;52.014;5.190;2023-04-30T16:50:10;101967.72;;;20.15;100.00
37860;BME280;23698;52.014;5.190;2023-04-30T16:53:22;101964.97;;;20.83;100.00
37860;BME280;23698;52.014;5.190;2023-04-30T16:56:14;101966.75;;;19.85;100.00
37860;BME280;23698;52.014;5.190;2023-04-30T16:59:03;101953.94;;;19.21;100.00
37860;BME280;23698;52.014;5.190;2023-04-30T17:01:50;101960.59;;;19.64;100.00
37860;BME280;23698;52.014;5.190;2023-04-30T17:04:40;101953.53;;;19.43;100.00
37860;BME280;23698;52.014;5.190;2023-04-30T17:07:27;101956.13;;;19.06;100.00
37860;BME280;23698;52.014;5.190;2023-04-30T17:10:13;101946.94;;;18.87;100.00
37860;BME280;23698;52.014;5.190;2023-04-30T17:13:02;101945.31;;;19.11;100.00
37860;BME280;23698;52.014;5.190;2023-04-30T17:15:49;101942.38;;;18.67;100.00
37860;BME280;23698;52.014;5.190;2023-04-30T17:18:52;101941.78;;;18.65;100.00
37860;BME280;23698;52.014;5.190;2023-04-30T17:21:38;101941.25;;;18.89;100.00
37860;BME280;23698;52.014;5.190;2023-04-30T17:24:27;101940.50;;;18.68;100.00
37860;BME280;23698;52.014;5.190;2023-04-30T17:27:23;101939.38;;;18.37;100.00
37860;BME280;23698;52.014;5.190;2023-04-30T17:30:11;101939.19;;;18.77;100.00
37860;BME280;23698;52.014;5.190;2023-04-30T17:32:57;101931.50;;;18.93;100.00
37860;BME280;23698;52.014;5.190;2023-04-30T17:35:45;101938.09;;;18.85;100.00
37860;BME280;23698;52.014;5.190;2023-04-30T17:38:31;101932.06;;;18.63;100.00
37860;BME280;23698;52.014;5.190;2023-04-30T17:41:18;101931.19;;;18.69;100.00
37860;BME280;23698;52.014;5.190;2023-04-30T17:44:05;101924.94;;;18.48;100.00
37860;BME280;23698;52.014;5.190;2023-04-30T17:46:52;101938.84;;;18.54;100.00
37860;BME280;23698;52.014;5.190;2023-04-30T17:49:39;101927.78;;;18.28;100.00
37860;BME280;23698;52.014;5.190;2023-04-30T17:52:26;101925.25;;;18.72;100.00
37860;BME280;23698;52.014;5.190;2023-04-30T17:55:12;101927.00;;;18.66;100.00
37860;BME280;23698;52.014;5.190;2023-04-30T17:57:59;101924.09;;;18.48;100.00
37860;BME280;23698;52.014;5.190;2023-04-30T18:00:47;101932.03;;;18.24;100.00
37860;BME280;23698;52.014;5.190;2023-04-30T18:03:36;101930.69;;;18.40;100.00
37860;BME280;23698;52.014;5.190;2023-04-30T18:06:35;101926.56;;;18.11;100.00
37860;BME280;23698;52.014;5.190;2023-04-30T18:09:22;101925.47;;;18.25;100.00
37860;BME280;23698;52.014;5.190;2023-04-30T18:12:17;101926.06;;;18.34;100.00
37860;BME280;23698;52.014;5.190;2023-04-30T18:15:05;101922.75;;;18.19;100.00
37860;BME280;23698;52.014;5.190;2023-04-30T18:17:52;101932.28;;;18.03;100.00
37860;BME280;23698;52.014;5.190;2023-04-30T18:20:40;101926.78;;;18.16;100.00
37860;BME280;23698;52.014;5.190;2023-04-30T18:23:27;101930.19;;;17.85;100.00
37860;BME280;23698;52.014;5.190;2023-04-30T18:26:16;101925.88;;;18.29;100.00
37860;BME280;23698;52.014;5.190;2023-04-30T18:29:04;101922.19;;;17.97;100.00
37860;BME280;23698;52.014;5.190;2023-04-30T18:31:52;101916.53;;;17.58;100.00
37860;BME280;23698;52.014;5.190;2023-04-30T18:34:38;101909.34;;;17.70;100.00
37860;BME280;23698;52.014;5.190;2023-04-30T18:37:27;101919.69;;;17.68;100.00
37860;BME280;23698;52.014;5.190;2023-04-30T18:40:39;101917.16;;;17.40;100.00
37860;BME280;23698;52.014;5.190;2023-04-30T18:43:25;101905.78;;;17.50;100.00
37860;BME280;23698;52.014;5.190;2023-04-30T18:46:39;101906.19;;;17.07;100.00
37860;BME280;23698;52.014;5.190;2023-04-30T18:49:27;101904.72;;;17.04;100.00
37860;BME280;23698;52.014;5.190;2023-04-30T18:56:49;101905.53;;;16.85;100.00
37860;BME280;23698;52.014;5.190;2023-04-30T18:59:35;101908.16;;;16.58;100.00
37860;BME280;23698;52.014;5.190;2023-04-30T19:31:42;101896.69;;;15.58;100.00
37860;BME280;23698;52.014;5.190;2023-04-30T19:34:29;101906.63;;;15.65;100.00
37860;BME280;23698;52.014;5.190;2023-04-30T19:37:15;101902.59;;;15.61;100.00
37860;BME280;23698;52.014;5.190;2023-04-30T19:40:02;101902.34;;;15.78;100.00
37860;BME280;23698;52.014;5.190;2023-04-30T19:42:52;101910.25;;;15.73;100.00
37860;BME280;23698;52.014;5.190;2023-04-30T19:45:42;101898.78;;;15.56;100.00
37860;BME280;23698;52.014;5.190;2023-04-30T19:48:30;101894.34;;;15.55;100.00
37860;BME280;23698;52.014;5.190;2023-04-30T19:51:17;101895.59;;;15.52;100.00
37860;BME280;23698;52.014;5.190;2023-04-30T19:54:03;101897.84;;;15.42;100.00
37860;BME280;23698;52.014;5.190;2023-04-30T19:56:50;101894.34;;;15.26;100.00
37860;BME280;23698;52.014;5.190;2023-04-30T19:59:37;101894.22;;;15.35;100.00
37860;BME280;23698;52.014;5.190;2023-04-30T20:11:47;101897.47;;;15.23;100.00
37860;BME280;23698;52.014;5.190;2023-04-30T20:14:35;101894.28;;;15.20;100.00
37860;BME280;23698;52.014;5.190;2023-04-30T20:17:22;101892.47;;;15.05;100.00
37860;BME280;23698;52.014;5.190;2023-04-30T20:20:09;101891.22;;;15.29;100.00
37860;BME280;23698;52.014;5.190;2023-04-30T20:22:57;101891.28;;;15.36;100.00
37860;BME280;23698;52.014;5.190;2023-04-30T20:25:44;101887.41;;;15.24;100.00
37860;BME280;23698;52.014;5.190;2023-04-30T20:28:33;101887.50;;;15.37;100.00
37860;BME280;23698;52.014;5.190;2023-04-30T20:31:20;101887.00;;;15.27;100.00
37860;BME280;23698;52.014;5.190;2023-04-30T20:34:07;101882.41;;;15.06;100.00
37860;BME280;23698;52.014;5.190;2023-04-30T20:36:53;101883.19;;;15.00;100.00
37860;BME280;23698;52.014;5.190;2023-04-30T20:39:40;101881.69;;;14.97;100.00
37860;BME280;23698;52.014;5.190;2023-04-30T20:42:28;101882.41;;;14.84;100.00
37860;BME280;23698;52.014;5.190;2023-04-30T20:45:16;101880.59;;;14.91;100.00
37860;BME280;23698;52.014;5.190;2023-04-30T20:48:04;101878.41;;;14.80;100.00
37860;BME280;23698;52.014;5.190;2023-04-30T20:50:51;101874.28;;;14.91;100.00
37860;BME280;23698;52.014;5.190;2023-04-30T20:53:38;101875.84;;;15.00;100.00
37860;BME280;23698;52.014;5.190;2023-04-30T20:56:24;101869.22;;;14.88;100.00
37860;BME280;23698;52.014;5.190;2023-04-30T20:59:11;101871.75;;;14.68;100.00
37860;BME280;23698;52.014;5.190;2023-04-30T21:01:58;101874.53;;;14.75;100.00
37860;BME280;23698;52.014;5.190;2023-04-30T21:04:45;101869.78;;;14.62;100.00
37860;BME280;23698;52.014;5.190;2023-04-30T21:07:32;101865.31;;;14.76;100.00
37860;BME280;23698;52.014;5.190;2023-04-30T21:10:19;101866.78;;;14.57;100.00
37860;BME280;23698;52.014;5.190;2023-04-30T21:13:05;101866.13;;;14.54;100.00
37860;BME280;23698;52.014;5.190;2023-04-30T21:15:53;101859.97;;;14.31;100.00
37860;BME280;23698;52.014;5.190;2023-04-30T21:18:41;101856.41;;;14.30;100.00
37860;BME280;23698;52.014;5.190;2023-04-30T21:21:28;101857.50;;;14.36;100.00
37860;BME280;23698;52.014;5.190;2023-04-30T21:24:14;101860.78;;;14.46;100.00
37860;BME280;23698;52.014;5.190;2023-04-30T21:27:01;101844.75;;;14.37;100.00
37860;BME280;23698;52.014;5.190;2023-04-30T21:29:50;101852.38;;;14.26;100.00
37860;BME280;23698;52.014;5.190;2023-04-30T21:32:36;101848.53;;;14.21;100.00
37860;BME280;23698;52.014;5.190;2023-04-30T21:35:25;101851.00;;;14.15;100.00
37860;BME280;23698;52.014;5.190;2023-04-30T21:38:12;101848.19;;;14.09;100.00
37860;BME280;23698;52.014;5.190;2023-04-30T21:40:59;101836.81;;;14.05;100.00
37860;BME280;23698;52.014;5.190;2023-04-30T21:43:47;101844.34;;;14.03;100.00
37860;BME280;23698;52.014;5.190;2023-04-30T21:46:34;101841.34;;;13.83;100.00
37860;BME280;23698;52.014;5.190;2023-04-30T21:49:21;101837.59;;;13.69;100.00
37860;BME280;23698;52.014;5.190;2023-04-30T21:52:09;101835.72;;;13.85;100.00
37860;BME280;23698;52.014;5.190;2023-04-30T21:54:56;101835.78;;;13.76;100.00
37860;BME280;23698;52.014;5.190;2023-04-30T21:57:42;101843.38;;;13.96;100.00
37860;BME280;23698;52.014;5.190;2023-04-30T22:00:30;101836.72;;;13.84;100.00
37860;BME280;23698;52.014;5.190;2023-04-30T22:03:16;101829.75;;;13.96;100.00
37860;BME280;23698;52.014;5.190;2023-04-30T22:06:03;101831.00;;;13.93;100.00
37860;BME280;23698;52.014;5.190;2023-04-30T22:08:51;101833.81;;;13.85;100.00
37860;BME280;23698;52.014;5.190;2023-04-30T22:11:37;101824.25;;;13.89;100.00
37860;BME280;23698;52.014;5.190;2023-04-30T22:14:23;101821.97;;;13.78;100.00
37860;BME280;23698;52.014;5.190;2023-04-30T22:17:10;101815.00;;;13.90;100.00
37860;BME280;23698;52.014;5.190;2023-04-30T22:19:56;101817.38;;;13.93;100.00
37860;BME280;23698;52.014;5.190;2023-04-30T22:22:43;101808.44;;;13.85;100.00
37860;BME280;23698;52.014;5.190;2023-04-30T22:25:30;101805.16;;;13.74;100.00
37860;BME280;23698;52.014;5.190;2023-04-30T22:28:17;101802.25;;;13.76;100.00
37860;BME280;23698;52.014;5.190;2023-04-30T22:31:05;101800.56;;;13.90;100.00
37860;BME280;23698;52.014;5.190;2023-04-30T22:33:51;101799.63;;;13.68;100.00
37860;BME280;23698;52.014;5.190;2023-04-30T22:36:37;101798.22;;;13.72;100.00
37860;BME280;23698;52.014;5.190;2023-04-30T22:39:23;101802.34;;;13.83;100.00
37860;BME280;23698;52.014;5.190;2023-04-30T22:42:11;101803.09;;;13.76;100.00
37860;BME280;23698;52.014;5.190;2023-04-30T22:44:58;101799.53;;;13.61;100.00
37860;BME280;23698;52.014;5.190;2023-04-30T22:47:44;101800.94;;;13.57;100.00
37860;BME280;23698;52.014;5.190;2023-04-30T22:50:31;101800.09;;;13.71;100.00
37860;BME280;23698;52.014;5.190;2023-04-30T22:53:17;101792.59;;;13.58;100.00
37860;BME280;23698;52.014;5.190;2023-04-30T22:56:04;101801.72;;;13.51;100.00
37860;BME280;23698;52.014;5.190;2023-04-30T22:58:51;101800.84;;;13.50;100.00
37860;BME280;23698;52.014;5.190;2023-04-30T23:01:38;101800.19;;;13.48;100.00
37860;BME280;23698;52.014;5.190;2023-04-30T23:04:24;101797.28;;;13.35;100.00
37860;BME280;23698;52.014;5.190;2023-04-30T23:07:12;101795.19;;;13.22;100.00
37860;BME280;23698;52.014;5.190;2023-04-30T23:09:59;101798.19;;;13.27;100.00
37860;BME280;23698;52.014;5.190;2023-04-30T23:12:45;101798.66;;;13.31;100.00
37860;BME280;23698;52.014;5.190;2023-04-30T23:15:33;101794.25;;;13.30;100.00